sensor_id;sensor_type;location;lat;lon;timestamp;temperature;humidity
8067;DHT22;4076;48.076;9.118;2023-05-10T00:02:24;13.20;99.90
8067;DHT22;4076;48.076;9.118;2023-05-10T00:04:49;13.20;99.90
8067;DHT22;4076;48.076;9.118;2023-05-10T00:07:15;13.20;99.90
8067;DHT22;4076;48.076;9.118;2023-05-10T00:09:42;13.10;99.90
8067;DHT22;4076;48.076;9.118;2023-05-10T00:12:08;13.10;99.90
8067;DHT22;4076;48.076;9.118;2023-05-10T00:14:34;13.10;99.90
8067;DHT22;4076;48.076;9.118;2023-05-10T00:17:00;13.10;99.90
8067;DHT22;4076;48.076;9.118;2023-05-10T00:19:25;13.10;99.90
8067;DHT22;4076;48.076;9.118;2023-05-10T00:21:51;13.10;99.90
8067;DHT22;4076;48.076;9.118;2023-05-10T00:24:16;13.10;99.90
8067;DHT22;4076;48.076;9.118;2023-05-10T00:26:42;13.00;99.90
8067;DHT22;4076;48.076;9.118;2023-05-10T00:29:07;13.00;99.90
8067;DHT22;4076;48.076;9.118;2023-05-10T00:31:33;13.00;99.90
8067;DHT22;4076;48.076;9.118;2023-05-10T00:33:58;13.00;99.90
8067;DHT22;4076;48.076;9.118;2023-05-10T00:36:24;13.00;99.90
8067;DHT22;4076;48.076;9.118;2023-05-10T00:38:49;13.00;99.90
8067;DHT22;4076;48.076;9.118;2023-05-10T00:41:15;13.00;99.90
8067;DHT22;4076;48.076;9.118;2023-05-10T00:43:41;13.00;99.90
8067;DHT22;4076;48.076;9.118;2023-05-10T00:46:07;13.00;99.90
8067;DHT22;4076;48.076;9.118;2023-05-10T00:48:33;13.00;99.90
8067;DHT22;4076;48.076;9.118;2023-05-10T00:50:59;13.00;99.90
8067;DHT22;4076;48.076;9.118;2023-05-10T00:53:24;13.00;99.90
8067;DHT22;4076;48.076;9.118;2023-05-10T00:55:50;13.00;99.90
8067;DHT22;4076;48.076;9.118;2023-05-10T00:58:16;13.00;99.90
8067;DHT22;4076;48.076;9.118;2023-05-10T01:00:43;12.90;99.90
8067;DHT22;4076;48.076;9.118;2023-05-10T01:03:11;12.90;99.90
8067;DHT22;4076;48.076;9.118;2023-05-10T01:05:37;12.90;99.90
8067;DHT22;4076;48.076;9.118;2023-05-10T01:08:03;12.90;99.90
8067;DHT22;4076;48.076;9.118;2023-05-10T01:10:29;12.80;99.90
8067;DHT22;4076;48.076;9.118;2023-05-10T01:12:55;12.80;99.90
8067;DHT22;4076;48.076;9.118;2023-05-10T01:15:21;12.80;99.90
8067;DHT22;4076;48.076;9.118;2023-05-10T01:17:48;12.70;99.90
8067;DHT22;4076;48.076;9.118;2023-05-10T01:20:14;12.70;99.90
8067;DHT22;4076;48.076;9.118;2023-05-10T01:28:48;12.60;99.90
8067;DHT22;4076;48.076;9.118;2023-05-10T01:34:23;12.60;99.90
8067;DHT22;4076;48.076;9.118;2023-05-10T01:37:07;12.60;99.90
8067;DHT22;4076;48.076;9.118;2023-05-10T01:39:44;12.60;99.90
8067;DHT22;4076;48.076;9.118;2023-05-10T01:42:16;12.60;99.90
8067;DHT22;4076;48.076;9.118;2023-05-10T01:45:02;12.60;99.90
8067;DHT22;4076;48.076;9.118;2023-05-10T01:47:38;12.60;99.90
8067;DHT22;4076;48.076;9.118;2023-05-10T01:50:10;12.60;99.90
8067;DHT22;4076;48.076;9.118;2023-05-10T01:52:42;12.60;99.90
8067;DHT22;4076;48.076;9.118;2023-05-10T01:55:14;12.60;99.90
8067;DHT22;4076;48.076;9.118;2023-05-10T01:57:43;12.50;99.90
8067;DHT22;4076;48.076;9.118;2023-05-10T02:00:10;12.50;99.90
8067;DHT22;4076;48.076;9.118;2023-05-10T02:02:40;12.40;99.90
8067;DHT22;4076;48.076;9.118;2023-05-10T02:05:08;12.40;99.90
8067;DHT22;4076;48.076;9.118;2023-05-10T02:07:35;12.30;99.90
8067;DHT22;4076;48.076;9.118;2023-05-10T02:10:06;12.30;99.90
8067;DHT22;4076;48.076;9.118;2023-05-10T02:12:36;12.30;99.90
8067;DHT22;4076;48.076;9.118;2023-05-10T02:15:05;12.20;99.90
8067;DHT22;4076;48.076;9.118;2023-05-10T02:17:31;12.20;99.90
8067;DHT22;4076;48.076;9.118;2023-05-10T02:19:59;12.10;99.90
8067;DHT22;4076;48.076;9.118;2023-05-10T02:22:26;12.10;99.90
8067;DHT22;4076;48.076;9.118;2023-05-10T02:24:54;12.10;99.90
8067;DHT22;4076;48.076;9.118;2023-05-10T02:27:22;12.00;99.90
8067;DHT22;4076;48.076;9.118;2023-05-10T02:29:50;12.00;99.90
8067;DHT22;4076;48.076;9.118;2023-05-10T02:32:16;11.90;99.90
8067;DHT22;4076;48.076;9.118;2023-05-10T02:34:43;11.90;99.90
8067;DHT22;4076;48.076;9.118;2023-05-10T02:37:12;11.90;99.90
8067;DHT22;4076;48.076;9.118;2023-05-10T02:39:39;11.80;99.90
8067;DHT22;4076;48.076;9.118;2023-05-10T02:42:11;11.80;99.90
8067;DHT22;4076;48.076;9.118;2023-05-10T02:44:41;11.70;99.90
8067;DHT22;4076;48.076;9.118;2023-05-10T02:47:08;11.70;99.90
8067;DHT22;4076;48.076;9.118;2023-05-10T02:49:34;11.70;99.90
8067;DHT22;4076;48.076;9.118;2023-05-10T02:52:01;11.60;99.90
8067;DHT22;4076;48.076;9.118;2023-05-10T02:54:32;11.60;99.90
8067;DHT22;4076;48.076;9.118;2023-05-10T02:56:59;11.60;99.90
8067;DHT22;4076;48.076;9.118;2023-05-10T02:59:26;11.60;99.90
8067;DHT22;4076;48.076;9.118;2023-05-10T03:01:51;11.60;99.90
8067;DHT22;4076;48.076;9.118;2023-05-10T03:04:17;11.60;99.90
8067;DHT22;4076;48.076;9.118;2023-05-10T03:06:43;11.60;99.90
8067;DHT22;4076;48.076;9.118;2023-05-10T03:09:09;11.50;99.90
8067;DHT22;4076;48.076;9.118;2023-05-10T03:19:57;11.60;99.90
8067;DHT22;4076;48.076;9.118;2023-05-10T03:22:33;11.60;99.90
8067;DHT22;4076;48.076;9.118;2023-05-10T03:25:01;11.70;99.90
8067;DHT22;4076;48.076;9.118;2023-05-10T03:27:31;11.70;99.90
8067;DHT22;4076;48.076;9.118;2023-05-10T03:29:57;11.70;99.90
8067;DHT22;4076;48.076;9.118;2023-05-10T03:32:23;11.70;99.90
8067;DHT22;4076;48.076;9.118;2023-05-10T03:34:49;11.70;99.90
8067;DHT22;4076;48.076;9.118;2023-05-10T03:37:15;11.70;99.90
8067;DHT22;4076;48.076;9.118;2023-05-10T03:39:40;11.70;99.90
8067;DHT22;4076;48.076;9.118;2023-05-10T03:42:06;11.70;99.90
8067;DHT22;4076;48.076;9.118;2023-05-10T03:44:31;11.70;99.90
8067;DHT22;4076;48.076;9.118;2023-05-10T03:46:58;11.70;99.90
8067;DHT22;4076;48.076;9.118;2023-05-10T03:49:24;11.70;99.90
8067;DHT22;4076;48.076;9.118;2023-05-10T03:51:49;11.70;99.90
8067;DHT22;4076;48.076;9.118;2023-05-10T03:54:15;11.70;99.90
8067;DHT22;4076;48.076;9.118;2023-05-10T03:56:41;11.70;99.90
8067;DHT22;4076;48.076;9.118;2023-05-10T03:59:06;11.70;99.90
8067;DHT22;4076;48.076;9.118;2023-05-10T04:01:33;11.70;99.90
8067;DHT22;4076;48.076;9.118;2023-05-10T04:03:59;11.70;99.90
8067;DHT22;4076;48.076;9.118;2023-05-10T04:06:24;11.70;99.90
8067;DHT22;4076;48.076;9.118;2023-05-10T04:08:50;11.70;99.90
8067;DHT22;4076;48.076;9.118;2023-05-10T04:11:15;11.70;99.90
8067;DHT22;4076;48.076;9.118;2023-05-10T04:13:41;11.70;99.90
8067;DHT22;4076;48.076;9.118;2023-05-10T04:16:08;11.70;99.90
8067;DHT22;4076;48.076;9.118;2023-05-10T04:18:34;11.70;99.90
8067;DHT22;4076;48.076;9.118;2023-05-10T04:21:00;11.70;99.90
8067;DHT22;4076;48.076;9.118;2023-05-10T04:23:26;11.70;99.90
8067;DHT22;4076;48.076;9.118;2023-05-10T04:25:52;11.80;99.90
8067;DHT22;4076;48.076;9.118;2023-05-10T04:28:17;11.80;99.90
8067;DHT22;4076;48.076;9.118;2023-05-10T04:30:43;11.80;99.90
8067;DHT22;4076;48.076;9.118;2023-05-10T04:33:08;11.80;99.90
8067;DHT22;4076;48.076;9.118;2023-05-10T04:35:34;11.80;99.90
8067;DHT22;4076;48.076;9.118;2023-05-10T04:38:00;11.80;99.90
8067;DHT22;4076;48.076;9.118;2023-05-10T04:40:26;11.70;99.90
8067;DHT22;4076;48.076;9.118;2023-05-10T04:42:51;11.80;99.90
8067;DHT22;4076;48.076;9.118;2023-05-10T04:45:17;11.80;99.90
8067;DHT22;4076;48.076;9.118;2023-05-10T04:47:42;11.80;99.90
8067;DHT22;4076;48.076;9.118;2023-05-10T04:50:08;11.80;99.90
8067;DHT22;4076;48.076;9.118;2023-05-10T04:52:33;11.80;99.90
8067;DHT22;4076;48.076;9.118;2023-05-10T04:54:59;11.90;99.90
8067;DHT22;4076;48.076;9.118;2023-05-10T04:57:25;11.90;99.90
8067;DHT22;4076;48.076;9.118;2023-05-10T04:59:50;11.90;99.90
8067;DHT22;4076;48.076;9.118;2023-05-10T05:02:16;11.90;99.90
8067;DHT22;4076;48.076;9.118;2023-05-10T05:04:41;11.90;99.90
8067;DHT22;4076;48.076;9.118;2023-05-10T05:07:07;11.90;99.90
8067;DHT22;4076;48.076;9.118;2023-05-10T05:09:32;11.90;99.90
8067;DHT22;4076;48.076;9.118;2023-05-10T05:11:58;11.90;99.90
8067;DHT22;4076;48.076;9.118;2023-05-10T05:14:24;11.90;99.90
8067;DHT22;4076;48.076;9.118;2023-05-10T05:16:52;12.00;99.90
8067;DHT22;4076;48.076;9.118;2023-05-10T05:19:18;12.00;99.90
8067;DHT22;4076;48.076;9.118;2023-05-10T05:21:44;12.00;99.90
8067;DHT22;4076;48.076;9.118;2023-05-10T05:24:09;12.00;99.90
8067;DHT22;4076;48.076;9.118;2023-05-10T05:26:36;12.00;99.90
8067;DHT22;4076;48.076;9.118;2023-05-10T05:29:02;12.00;99.90
8067;DHT22;4076;48.076;9.118;2023-05-10T05:31:28;12.00;99.90
8067;DHT22;4076;48.076;9.118;2023-05-10T05:33:53;12.10;99.90
8067;DHT22;4076;48.076;9.118;2023-05-10T05:36:19;12.10;99.90
8067;DHT22;4076;48.076;9.118;2023-05-10T05:38:44;12.20;99.90
8067;DHT22;4076;48.076;9.118;2023-05-10T05:41:10;12.30;99.90
8067;DHT22;4076;48.076;9.118;2023-05-10T05:43:35;12.40;99.90
8067;DHT22;4076;48.076;9.118;2023-05-10T05:46:02;12.40;99.90
8067;DHT22;4076;48.076;9.118;2023-05-10T05:48:29;12.40;99.90
8067;DHT22;4076;48.076;9.118;2023-05-10T05:50:55;12.40;99.90
8067;DHT22;4076;48.076;9.118;2023-05-10T05:53:22;12.30;99.90
8067;DHT22;4076;48.076;9.118;2023-05-10T05:55:58;12.30;99.90
8067;DHT22;4076;48.076;9.118;2023-05-10T05:58:24;12.30;99.90
8067;DHT22;4076;48.076;9.118;2023-05-10T06:00:50;12.30;99.90
8067;DHT22;4076;48.076;9.118;2023-05-10T06:03:17;12.30;99.90
8067;DHT22;4076;48.076;9.118;2023-05-10T06:05:43;12.30;99.90
8067;DHT22;4076;48.076;9.118;2023-05-10T06:08:08;12.30;99.90
8067;DHT22;4076;48.076;9.118;2023-05-10T06:10:34;12.40;99.90
8067;DHT22;4076;48.076;9.118;2023-05-10T06:12:59;12.40;99.90
8067;DHT22;4076;48.076;9.118;2023-05-10T06:15:25;12.60;99.90
8067;DHT22;4076;48.076;9.118;2023-05-10T06:17:51;12.60;99.90
8067;DHT22;4076;48.076;9.118;2023-05-10T06:20:17;12.70;99.90
8067;DHT22;4076;48.076;9.118;2023-05-10T06:22:43;12.80;99.90
8067;DHT22;4076;48.076;9.118;2023-05-10T06:25:09;12.80;99.90
8067;DHT22;4076;48.076;9.118;2023-05-10T06:27:35;12.80;99.90
8067;DHT22;4076;48.076;9.118;2023-05-10T06:30:00;12.90;99.90
8067;DHT22;4076;48.076;9.118;2023-05-10T06:32:26;12.90;99.90
8067;DHT22;4076;48.076;9.118;2023-05-10T06:34:52;12.90;99.90
8067;DHT22;4076;48.076;9.118;2023-05-10T06:37:18;13.00;99.90
8067;DHT22;4076;48.076;9.118;2023-05-10T06:39:43;13.00;99.90
8067;DHT22;4076;48.076;9.118;2023-05-10T06:42:09;13.10;99.90
8067;DHT22;4076;48.076;9.118;2023-05-10T06:44:34;13.20;99.90
8067;DHT22;4076;48.076;9.118;2023-05-10T06:47:00;13.10;99.90
8067;DHT22;4076;48.076;9.118;2023-05-10T06:49:25;13.20;99.90
8067;DHT22;4076;48.076;9.118;2023-05-10T06:51:51;13.30;99.90
8067;DHT22;4076;48.076;9.118;2023-05-10T06:54:17;13.30;99.90
8067;DHT22;4076;48.076;9.118;2023-05-10T06:56:43;13.30;99.90
8067;DHT22;4076;48.076;9.118;2023-05-10T06:59:08;13.40;99.90
8067;DHT22;4076;48.076;9.118;2023-05-10T07:01:34;13.50;99.90
8067;DHT22;4076;48.076;9.118;2023-05-10T07:04:00;13.50;99.90
8067;DHT22;4076;48.076;9.118;2023-05-10T07:06:25;13.50;99.90
8067;DHT22;4076;48.076;9.118;2023-05-10T07:08:51;13.50;99.90
8067;DHT22;4076;48.076;9.118;2023-05-10T07:11:16;13.60;99.90
8067;DHT22;4076;48.076;9.118;2023-05-10T07:13:42;13.60;99.90
8067;DHT22;4076;48.076;9.118;2023-05-10T07:16:09;13.60;99.90
8067;DHT22;4076;48.076;9.118;2023-05-10T07:18:35;13.70;99.90
8067;DHT22;4076;48.076;9.118;2023-05-10T07:21:01;13.70;99.90
8067;DHT22;4076;48.076;9.118;2023-05-10T07:23:26;13.80;99.90
8067;DHT22;4076;48.076;9.118;2023-05-10T07:25:52;13.80;99.90
8067;DHT22;4076;48.076;9.118;2023-05-10T07:28:18;13.90;99.90
8067;DHT22;4076;48.076;9.118;2023-05-10T07:30:44;13.90;99.90
8067;DHT22;4076;48.076;9.118;2023-05-10T07:33:12;13.90;99.90
8067;DHT22;4076;48.076;9.118;2023-05-10T07:35:39;14.00;99.90
8067;DHT22;4076;48.076;9.118;2023-05-10T07:38:04;14.10;99.90
8067;DHT22;4076;48.076;9.118;2023-05-10T07:40:30;14.20;99.90
8067;DHT22;4076;48.076;9.118;2023-05-10T07:42:56;14.30;99.90
8067;DHT22;4076;48.076;9.118;2023-05-10T07:45:22;14.40;99.90
8067;DHT22;4076;48.076;9.118;2023-05-10T07:47:49;14.30;99.90
8067;DHT22;4076;48.076;9.118;2023-05-10T07:50:14;14.40;99.90
8067;DHT22;4076;48.076;9.118;2023-05-10T07:52:41;14.30;99.90
8067;DHT22;4076;48.076;9.118;2023-05-10T07:55:07;14.20;99.90
8067;DHT22;4076;48.076;9.118;2023-05-10T07:57:34;14.20;99.90
8067;DHT22;4076;48.076;9.118;2023-05-10T07:59:59;14.20;99.90
8067;DHT22;4076;48.076;9.118;2023-05-10T08:02:25;14.20;99.90
8067;DHT22;4076;48.076;9.118;2023-05-10T08:04:50;14.10;99.90
8067;DHT22;4076;48.076;9.118;2023-05-10T08:07:16;14.20;99.90
8067;DHT22;4076;48.076;9.118;2023-05-10T08:09:42;14.20;99.90
8067;DHT22;4076;48.076;9.118;2023-05-10T08:12:08;14.30;99.90
8067;DHT22;4076;48.076;9.118;2023-05-10T08:14:33;14.40;99.90
8067;DHT22;4076;48.076;9.118;2023-05-10T08:16:59;14.50;99.90
8067;DHT22;4076;48.076;9.118;2023-05-10T08:19:24;14.50;99.90
8067;DHT22;4076;48.076;9.118;2023-05-10T08:21:50;14.40;99.90
8067;DHT22;4076;48.076;9.118;2023-05-10T08:24:16;14.30;99.90
8067;DHT22;4076;48.076;9.118;2023-05-10T08:26:41;14.10;99.90
8067;DHT22;4076;48.076;9.118;2023-05-10T08:29:07;14.00;99.90
8067;DHT22;4076;48.076;9.118;2023-05-10T08:31:32;13.80;99.90
8067;DHT22;4076;48.076;9.118;2023-05-10T08:33:58;13.50;99.90
8067;DHT22;4076;48.076;9.118;2023-05-10T08:36:23;13.30;99.90
8067;DHT22;4076;48.076;9.118;2023-05-10T08:38:50;13.00;99.90
8067;DHT22;4076;48.076;9.118;2023-05-10T08:41:19;12.80;99.90
8067;DHT22;4076;48.076;9.118;2023-05-10T08:43:46;12.80;99.90
8067;DHT22;4076;48.076;9.118;2023-05-10T08:46:16;12.70;99.90
8067;DHT22;4076;48.076;9.118;2023-05-10T08:48:44;12.70;99.90
8067;DHT22;4076;48.076;9.118;2023-05-10T08:51:14;12.70;99.90
8067;DHT22;4076;48.076;9.118;2023-05-10T08:53:40;12.70;99.90
8067;DHT22;4076;48.076;9.118;2023-05-10T08:56:06;12.70;99.90
8067;DHT22;4076;48.076;9.118;2023-05-10T08:58:32;12.70;99.90
8067;DHT22;4076;48.076;9.118;2023-05-10T09:00:58;12.70;99.90
8067;DHT22;4076;48.076;9.118;2023-05-10T09:03:24;12.80;99.90
8067;DHT22;4076;48.076;9.118;2023-05-10T09:05:50;12.80;99.90
8067;DHT22;4076;48.076;9.118;2023-05-10T09:08:16;12.80;99.90
8067;DHT22;4076;48.076;9.118;2023-05-10T09:10:43;12.90;99.90
8067;DHT22;4076;48.076;9.118;2023-05-10T09:13:10;13.00;99.90
8067;DHT22;4076;48.076;9.118;2023-05-10T09:15:37;13.10;99.90
8067;DHT22;4076;48.076;9.118;2023-05-10T09:18:02;13.30;99.90
8067;DHT22;4076;48.076;9.118;2023-05-10T09:20:28;13.40;99.90
8067;DHT22;4076;48.076;9.118;2023-05-10T09:22:53;13.50;99.90
8067;DHT22;4076;48.076;9.118;2023-05-10T09:25:19;13.60;99.90
8067;DHT22;4076;48.076;9.118;2023-05-10T09:27:46;13.70;99.90
8067;DHT22;4076;48.076;9.118;2023-05-10T09:30:17;13.80;99.90
8067;DHT22;4076;48.076;9.118;2023-05-10T09:32:45;13.70;99.90
8067;DHT22;4076;48.076;9.118;2023-05-10T09:35:12;13.70;99.90
8067;DHT22;4076;48.076;9.118;2023-05-10T09:37:43;13.60;99.90
8067;DHT22;4076;48.076;9.118;2023-05-10T09:40:16;13.60;99.90
8067;DHT22;4076;48.076;9.118;2023-05-10T09:42:50;13.60;99.90
8067;DHT22;4076;48.076;9.118;2023-05-10T09:45:16;13.60;99.90
8067;DHT22;4076;48.076;9.118;2023-05-10T09:47:41;13.60;99.90
8067;DHT22;4076;48.076;9.118;2023-05-10T09:50:07;13.70;99.90
8067;DHT22;4076;48.076;9.118;2023-05-10T09:52:49;13.80;99.90
8067;DHT22;4076;48.076;9.118;2023-05-10T09:55:17;13.90;99.90
8067;DHT22;4076;48.076;9.118;2023-05-10T09:57:43;14.10;99.90
8067;DHT22;4076;48.076;9.118;2023-05-10T10:00:08;14.20;99.90
8067;DHT22;4076;48.076;9.118;2023-05-10T10:02:38;14.20;99.90
8067;DHT22;4076;48.076;9.118;2023-05-10T10:05:05;14.20;99.90
8067;DHT22;4076;48.076;9.118;2023-05-10T10:07:31;14.30;99.90
8067;DHT22;4076;48.076;9.118;2023-05-10T10:09:58;14.30;99.90
8067;DHT22;4076;48.076;9.118;2023-05-10T10:12:25;14.40;99.90
8067;DHT22;4076;48.076;9.118;2023-05-10T10:14:51;14.40;99.90
8067;DHT22;4076;48.076;9.118;2023-05-10T10:17:18;14.50;99.90
8067;DHT22;4076;48.076;9.118;2023-05-10T10:19:45;14.60;99.90
8067;DHT22;4076;48.076;9.118;2023-05-10T10:22:11;14.60;99.90
8067;DHT22;4076;48.076;9.118;2023-05-10T10:24:38;14.60;99.90
8067;DHT22;4076;48.076;9.118;2023-05-10T10:27:28;14.60;99.90
8067;DHT22;4076;48.076;9.118;2023-05-10T10:30:06;14.50;99.90
8067;DHT22;4076;48.076;9.118;2023-05-10T10:35:29;14.50;99.90
8067;DHT22;4076;48.076;9.118;2023-05-10T10:37:55;14.50;99.90
8067;DHT22;4076;48.076;9.118;2023-05-10T10:42:51;14.60;99.90
8067;DHT22;4076;48.076;9.118;2023-05-10T10:45:17;14.70;99.90
8067;DHT22;4076;48.076;9.118;2023-05-10T10:47:43;14.80;99.90
8067;DHT22;4076;48.076;9.118;2023-05-10T10:50:10;14.90;99.90
8067;DHT22;4076;48.076;9.118;2023-05-10T10:55:07;15.20;99.90
8067;DHT22;4076;48.076;9.118;2023-05-10T10:57:53;15.30;99.90
8067;DHT22;4076;48.076;9.118;2023-05-10T11:00:32;15.30;99.90
8067;DHT22;4076;48.076;9.118;2023-05-10T11:03:11;15.30;99.90
8067;DHT22;4076;48.076;9.118;2023-05-10T11:05:49;15.30;99.90
8067;DHT22;4076;48.076;9.118;2023-05-10T11:08:26;15.20;99.90
8067;DHT22;4076;48.076;9.118;2023-05-10T11:13:39;15.00;99.90
8067;DHT22;4076;48.076;9.118;2023-05-10T11:18:59;14.70;99.90
8067;DHT22;4076;48.076;9.118;2023-05-10T11:21:26;14.60;99.90
8067;DHT22;4076;48.076;9.118;2023-05-10T11:23:56;14.60;99.90
8067;DHT22;4076;48.076;9.118;2023-05-10T11:26:23;14.60;99.90
8067;DHT22;4076;48.076;9.118;2023-05-10T11:28:53;14.60;99.90
8067;DHT22;4076;48.076;9.118;2023-05-10T11:31:20;14.70;99.90
8067;DHT22;4076;48.076;9.118;2023-05-10T11:33:49;14.70;99.90
8067;DHT22;4076;48.076;9.118;2023-05-10T11:36:20;14.70;99.90
8067;DHT22;4076;48.076;9.118;2023-05-10T11:38:47;14.70;99.90
8067;DHT22;4076;48.076;9.118;2023-05-10T11:41:14;14.70;99.90
8067;DHT22;4076;48.076;9.118;2023-05-10T11:43:40;14.70;99.90
8067;DHT22;4076;48.076;9.118;2023-05-10T11:46:07;14.60;99.90
8067;DHT22;4076;48.076;9.118;2023-05-10T11:48:33;14.40;99.90
8067;DHT22;4076;48.076;9.118;2023-05-10T11:51:00;14.20;99.90
8067;DHT22;4076;48.076;9.118;2023-05-10T11:53:28;14.10;99.90
8067;DHT22;4076;48.076;9.118;2023-05-10T11:55:54;14.00;99.90
8067;DHT22;4076;48.076;9.118;2023-05-10T11:58:20;13.90;99.90
8067;DHT22;4076;48.076;9.118;2023-05-10T12:00:47;13.80;99.90
8067;DHT22;4076;48.076;9.118;2023-05-10T12:03:13;13.70;99.90
8067;DHT22;4076;48.076;9.118;2023-05-10T12:05:39;13.60;99.90
8067;DHT22;4076;48.076;9.118;2023-05-10T12:08:14;13.50;99.90
8067;DHT22;4076;48.076;9.118;2023-05-10T12:10:40;13.50;99.90
8067;DHT22;4076;48.076;9.118;2023-05-10T12:13:05;13.40;99.90
8067;DHT22;4076;48.076;9.118;2023-05-10T12:15:35;13.30;99.90
8067;DHT22;4076;48.076;9.118;2023-05-10T12:18:01;13.20;99.90
8067;DHT22;4076;48.076;9.118;2023-05-10T12:20:28;13.20;99.90
8067;DHT22;4076;48.076;9.118;2023-05-10T12:22:55;13.20;99.90
8067;DHT22;4076;48.076;9.118;2023-05-10T12:25:22;13.10;99.90
8067;DHT22;4076;48.076;9.118;2023-05-10T12:27:54;13.20;99.90
8067;DHT22;4076;48.076;9.118;2023-05-10T12:30:27;13.20;99.90
8067;DHT22;4076;48.076;9.118;2023-05-10T12:32:59;13.20;99.90
8067;DHT22;4076;48.076;9.118;2023-05-10T12:35:24;13.40;99.90
8067;DHT22;4076;48.076;9.118;2023-05-10T12:37:50;13.60;99.90
8067;DHT22;4076;48.076;9.118;2023-05-10T12:40:16;14.00;99.90
8067;DHT22;4076;48.076;9.118;2023-05-10T12:42:42;14.40;99.90
8067;DHT22;4076;48.076;9.118;2023-05-10T12:45:09;14.80;99.90
8067;DHT22;4076;48.076;9.118;2023-05-10T12:47:35;15.20;99.90
8067;DHT22;4076;48.076;9.118;2023-05-10T12:50:01;15.50;99.90
8067;DHT22;4076;48.076;9.118;2023-05-10T12:52:28;15.70;99.90
8067;DHT22;4076;48.076;9.118;2023-05-10T12:54:54;15.90;99.90
8067;DHT22;4076;48.076;9.118;2023-05-10T12:57:23;15.90;99.90
8067;DHT22;4076;48.076;9.118;2023-05-10T12:59:48;16.10;99.90
8067;DHT22;4076;48.076;9.118;2023-05-10T13:02:15;16.20;99.90
8067;DHT22;4076;48.076;9.118;2023-05-10T13:04:41;16.40;99.90
8067;DHT22;4076;48.076;9.118;2023-05-10T13:07:07;16.50;99.90
8067;DHT22;4076;48.076;9.118;2023-05-10T13:09:33;16.60;99.90
8067;DHT22;4076;48.076;9.118;2023-05-10T13:11:58;16.60;99.90
8067;DHT22;4076;48.076;9.118;2023-05-10T13:14:24;16.70;99.90
8067;DHT22;4076;48.076;9.118;2023-05-10T13:16:51;16.70;99.90
8067;DHT22;4076;48.076;9.118;2023-05-10T13:19:17;16.70;99.90
8067;DHT22;4076;48.076;9.118;2023-05-10T13:21:43;16.60;99.90
8067;DHT22;4076;48.076;9.118;2023-05-10T13:24:10;16.70;99.90
8067;DHT22;4076;48.076;9.118;2023-05-10T13:26:36;16.80;99.90
8067;DHT22;4076;48.076;9.118;2023-05-10T13:29:02;16.90;99.90
8067;DHT22;4076;48.076;9.118;2023-05-10T13:31:28;17.00;99.90
8067;DHT22;4076;48.076;9.118;2023-05-10T13:33:54;17.10;99.90
8067;DHT22;4076;48.076;9.118;2023-05-10T13:36:20;17.20;99.90
8067;DHT22;4076;48.076;9.118;2023-05-10T13:38:45;17.30;99.90
8067;DHT22;4076;48.076;9.118;2023-05-10T13:41:11;17.30;99.90
8067;DHT22;4076;48.076;9.118;2023-05-10T13:43:36;17.40;99.90
8067;DHT22;4076;48.076;9.118;2023-05-10T13:46:02;17.40;99.90
8067;DHT22;4076;48.076;9.118;2023-05-10T13:48:28;17.40;99.90
8067;DHT22;4076;48.076;9.118;2023-05-10T13:50:53;17.30;99.60
8067;DHT22;4076;48.076;9.118;2023-05-10T13:53:19;17.20;99.70
8067;DHT22;4076;48.076;9.118;2023-05-10T13:55:44;17.10;98.70
8067;DHT22;4076;48.076;9.118;2023-05-10T13:58:10;17.00;98.10
8067;DHT22;4076;48.076;9.118;2023-05-10T14:00:36;16.90;97.00
8067;DHT22;4076;48.076;9.118;2023-05-10T14:03:01;16.90;98.00
8067;DHT22;4076;48.076;9.118;2023-05-10T14:05:27;17.00;98.30
8067;DHT22;4076;48.076;9.118;2023-05-10T14:07:53;17.10;98.50
8067;DHT22;4076;48.076;9.118;2023-05-10T14:10:19;17.10;99.30
8067;DHT22;4076;48.076;9.118;2023-05-10T14:12:44;17.10;96.50
8067;DHT22;4076;48.076;9.118;2023-05-10T14:15:10;17.10;97.00
8067;DHT22;4076;48.076;9.118;2023-05-10T14:17:37;17.00;95.10
8067;DHT22;4076;48.076;9.118;2023-05-10T14:20:02;17.00;95.90
8067;DHT22;4076;48.076;9.118;2023-05-10T14:22:29;16.90;93.90
8067;DHT22;4076;48.076;9.118;2023-05-10T14:24:54;16.90;96.10
8067;DHT22;4076;48.076;9.118;2023-05-10T14:27:20;16.90;96.50
8067;DHT22;4076;48.076;9.118;2023-05-10T14:29:47;16.90;95.60
8067;DHT22;4076;48.076;9.118;2023-05-10T14:32:12;16.80;96.00
8067;DHT22;4076;48.076;9.118;2023-05-10T14:34:38;16.80;94.70
8067;DHT22;4076;48.076;9.118;2023-05-10T14:37:04;16.80;96.60
8067;DHT22;4076;48.076;9.118;2023-05-10T14:39:29;16.80;97.10
8067;DHT22;4076;48.076;9.118;2023-05-10T14:41:55;16.80;97.00
8067;DHT22;4076;48.076;9.118;2023-05-10T14:44:21;16.70;97.70
8067;DHT22;4076;48.076;9.118;2023-05-10T14:46:47;16.70;97.20
8067;DHT22;4076;48.076;9.118;2023-05-10T14:49:13;16.60;95.40
8067;DHT22;4076;48.076;9.118;2023-05-10T14:51:39;16.50;94.70
8067;DHT22;4076;48.076;9.118;2023-05-10T14:54:04;16.40;94.80
8067;DHT22;4076;48.076;9.118;2023-05-10T14:56:31;16.40;95.00
8067;DHT22;4076;48.076;9.118;2023-05-10T14:58:57;16.40;95.30
8067;DHT22;4076;48.076;9.118;2023-05-10T15:01:23;16.40;95.10
8067;DHT22;4076;48.076;9.118;2023-05-10T15:03:48;16.40;95.10
8067;DHT22;4076;48.076;9.118;2023-05-10T15:06:14;16.40;95.00
8067;DHT22;4076;48.076;9.118;2023-05-10T15:08:41;16.40;95.00
8067;DHT22;4076;48.076;9.118;2023-05-10T15:11:07;16.30;94.40
8067;DHT22;4076;48.076;9.118;2023-05-10T15:13:32;16.30;93.80
8067;DHT22;4076;48.076;9.118;2023-05-10T15:15:58;16.30;93.80
8067;DHT22;4076;48.076;9.118;2023-05-10T15:18:23;16.30;94.00
8067;DHT22;4076;48.076;9.118;2023-05-10T15:20:49;16.20;92.70
8067;DHT22;4076;48.076;9.118;2023-05-10T15:23:14;16.10;92.80
8067;DHT22;4076;48.076;9.118;2023-05-10T15:25:40;15.90;92.30
8067;DHT22;4076;48.076;9.118;2023-05-10T15:28:06;15.80;92.60
8067;DHT22;4076;48.076;9.118;2023-05-10T15:30:31;15.60;93.00
8067;DHT22;4076;48.076;9.118;2023-05-10T15:32:57;15.40;93.00
8067;DHT22;4076;48.076;9.118;2023-05-10T15:35:22;15.20;93.10
8067;DHT22;4076;48.076;9.118;2023-05-10T15:37:48;15.10;93.10
8067;DHT22;4076;48.076;9.118;2023-05-10T15:40:14;14.90;93.40
8067;DHT22;4076;48.076;9.118;2023-05-10T15:42:40;14.80;94.20
8067;DHT22;4076;48.076;9.118;2023-05-10T15:45:06;14.70;94.60
8067;DHT22;4076;48.076;9.118;2023-05-10T15:47:32;14.60;95.10
8067;DHT22;4076;48.076;9.118;2023-05-10T15:49:58;14.50;95.80
8067;DHT22;4076;48.076;9.118;2023-05-10T15:52:23;14.40;98.00
8067;DHT22;4076;48.076;9.118;2023-05-10T15:54:49;14.30;97.50
8067;DHT22;4076;48.076;9.118;2023-05-10T15:57:15;14.20;99.30
8067;DHT22;4076;48.076;9.118;2023-05-10T15:59:41;14.20;99.90
8067;DHT22;4076;48.076;9.118;2023-05-10T16:02:08;14.10;99.90
8067;DHT22;4076;48.076;9.118;2023-05-10T16:04:35;14.10;99.90
8067;DHT22;4076;48.076;9.118;2023-05-10T16:07:01;14.00;99.90
8067;DHT22;4076;48.076;9.118;2023-05-10T16:09:26;14.00;99.90
8067;DHT22;4076;48.076;9.118;2023-05-10T16:11:52;13.90;99.90
8067;DHT22;4076;48.076;9.118;2023-05-10T16:14:18;13.80;99.90
8067;DHT22;4076;48.076;9.118;2023-05-10T16:16:45;13.80;99.90
8067;DHT22;4076;48.076;9.118;2023-05-10T16:19:11;13.80;99.90
8067;DHT22;4076;48.076;9.118;2023-05-10T16:21:37;13.80;99.90
8067;DHT22;4076;48.076;9.118;2023-05-10T16:24:03;13.80;99.90
8067;DHT22;4076;48.076;9.118;2023-05-10T16:26:29;13.80;99.90
8067;DHT22;4076;48.076;9.118;2023-05-10T16:28:55;13.80;99.90
8067;DHT22;4076;48.076;9.118;2023-05-10T16:31:20;13.80;99.90